Time;durP1;ratioP1;P1;durP2;ratioP2;P2;SDS_P1;SDS_P2;PMS_P1;PMS_P2;Temp;Humidity;BMP_temperature;BMP_pressure;BME280_temperature;BME280_humidity;BME280_pressure;Samples;Min_cycle;Max_cycle;Signal;HPM_P1;HPM_P2
2022/09/12 00:02:11;;;;;;;12.80;7.10;;;8.80;99.90;;;;;;6151833;23;20026;-75
2022/09/12 00:04:39;;;;;;;10.75;6.78;;;8.80;99.90;;;;;;6152666;23;20035;-75
2022/09/12 00:07:06;;;;;;;8.15;6.03;;;8.80;99.90;;;;;;6152470;23;20509;-75
2022/09/12 00:09:33;;;;;;;11.88;6.88;;;8.70;99.90;;;;;;6152170;23;20021;-75
2022/09/12 00:12:01;;;;;;;9.98;7.20;;;8.70;99.90;;;;;;6125649;23;20081;-75
2022/09/12 00:14:28;;;;;;;10.00;6.60;;;8.70;99.90;;;;;;6152577;23;20471;-75
2022/09/12 00:17:00;;;;;;;13.00;6.85;;;8.70;99.90;;;;;;6152789;23;20028;-75
2022/09/12 00:19:28;;;;;;;8.87;7.33;;;8.70;99.90;;;;;;6126310;23;20032;-76
2022/09/12 00:21:55;;;;;;;12.30;8.63;;;8.60;99.90;;;;;;6152771;23;20458;-76
2022/09/12 00:24:22;;;;;;;10.50;8.23;;;8.60;99.90;;;;;;6127406;23;20455;-76
2022/09/12 00:26:50;;;;;;;14.57;10.25;;;8.60;99.90;;;;;;6154630;23;20021;-76
2022/09/12 00:29:20;;;;;;;15.32;11.85;;;8.50;99.90;;;;;;6154782;23;20025;-76
2022/09/12 00:31:48;;;;;;;15.63;12.73;;;8.60;99.90;;;;;;6155737;23;20037;-76
2022/09/12 00:34:17;;;;;;;19.23;15.32;;;8.60;99.90;;;;;;6128967;23;20029;-76
2022/09/12 00:36:44;;;;;;;17.25;12.32;;;8.50;99.90;;;;;;6153849;23;20025;-76
2022/09/12 00:39:16;;;;;;;19.10;14.20;;;8.50;99.90;;;;;;6104993;23;20021;-77
2022/09/12 00:41:45;;;;;;;17.88;14.05;;;8.50;99.90;;;;;;6154459;23;20108;-76
2022/09/12 00:44:46;;;;;;;23.17;14.73;;;8.50;99.90;;;;;;6127540;23;20080;-76
2022/09/12 00:47:23;;;;;;;16.67;14.35;;;8.50;99.90;;;;;;6153644;23;20022;-75
2022/09/12 00:49:59;;;;;;;19.23;13.82;;;8.50;99.90;;;;;;6154586;23;20022;-75
2022/09/12 00:52:34;;;;;;;18.17;14.07;;;8.50;99.90;;;;;;6154886;23;20026;-76
2022/09/12 00:55:08;;;;;;;18.38;12.52;;;8.50;99.90;;;;;;6153174;23;20088;-75
2022/09/12 00:57:41;;;;;;;18.63;12.02;;;8.50;99.90;;;;;;6127711;23;20104;-74
2022/09/12 01:00:15;;;;;;;19.10;12.98;;;8.50;99.90;;;;;;6153798;23;20025;-75
2022/09/12 01:02:45;;;;;;;17.30;11.60;;;8.50;99.90;;;;;;6153408;23;20455;-75
2022/09/12 01:05:15;;;;;;;16.58;10.23;;;8.50;99.90;;;;;;6153671;23;20132;-76
2022/09/12 01:07:47;;;;;;;14.10;9.65;;;8.50;99.90;;;;;;6126868;23;20031;-75
2022/09/12 01:10:15;;;;;;;12.40;10.00;;;8.50;99.90;;;;;;6154342;23;20021;-75
2022/09/12 01:12:44;;;;;;;13.93;9.65;;;8.40;99.90;;;;;;6151875;23;20467;-75
2022/09/12 01:15:12;;;;;;;16.17;9.00;;;8.50;99.90;;;;;;6152345;23;20037;-75
2022/09/12 01:17:53;;;;;;;18.65;8.65;;;8.40;99.90;;;;;;6153983;23;20494;-76
2022/09/12 01:20:50;;;;;;;14.27;9.10;;;8.50;99.90;;;;;;6151900;23;20021;-75
2022/09/12 01:24:10;;;;;;;13.43;9.18;;;8.50;99.90;;;;;;6154221;23;20022;-75
2022/09/12 01:27:19;;;;;;;11.70;8.38;;;8.60;99.90;;;;;;6127607;23;20117;-76
2022/09/12 01:30:27;;;;;;;16.60;8.50;;;8.60;99.90;;;;;;6151712;23;20025;-75
2022/09/12 01:33:25;;;;;;;14.02;8.18;;;8.50;99.90;;;;;;6127311;23;20021;-75
2022/09/12 01:36:23;;;;;;;16.52;8.30;;;8.50;99.90;;;;;;6126709;23;20036;-75
2022/09/12 01:38:59;;;;;;;15.35;8.43;;;8.40;99.90;;;;;;6152546;23;20455;-75
2022/09/12 01:41:30;;;;;;;13.98;8.75;;;8.40;99.90;;;;;;6124816;23;20025;-75
2022/09/12 01:44:05;;;;;;;14.90;9.60;;;8.40;99.90;;;;;;6124643;23;20100;-75
2022/09/12 01:46:42;;;;;;;12.40;8.75;;;8.40;99.90;;;;;;6150892;23;20052;-75
2022/09/12 01:49:16;;;;;;;12.65;8.75;;;8.40;99.90;;;;;;6151848;23;20025;-75
2022/09/12 01:51:57;;;;;;;15.50;8.75;;;8.30;99.90;;;;;;6127358;23;20049;-75
2022/09/12 01:54:30;;;;;;;19.08;9.18;;;8.20;99.90;;;;;;6153237;23;20045;-75
2022/09/12 01:57:02;;;;;;;14.75;9.80;;;8.20;99.90;;;;;;6153570;23;20072;-76
2022/09/12 01:59:36;;;;;;;14.43;9.77;;;8.20;99.90;;;;;;6153623;23;20068;-76
2022/09/12 02:02:11;;;;;;;19.42;10.40;;;8.10;99.90;;;;;;6152875;23;20530;-75
2022/09/12 02:04:45;;;;;;;16.33;11.10;;;8.20;99.90;;;;;;6153472;23;20075;-76
2022/09/12 02:07:18;;;;;;;14.15;11.38;;;8.10;99.90;;;;;;6127050;23;20025;-76
2022/09/12 02:09:51;;;;;;;14.50;10.82;;;8.10;99.90;;;;;;6127245;23;20029;-77
2022/09/12 02:12:31;;;;;;;17.77;11.48;;;8.10;99.90;;;;;;6129637;23;20029;-76
2022/09/12 02:15:04;;;;;;;14.55;11.05;;;8.10;99.90;;;;;;6152735;23;20120;-75
2022/09/12 02:17:42;;;;;;;17.60;11.38;;;8.10;99.90;;;;;;6153783;23;20446;-76
2022/09/12 02:20:16;;;;;;;12.57;10.82;;;8.10;99.90;;;;;;6153055;23;20025;-75
2022/09/12 02:22:45;;;;;;;15.70;11.40;;;8.10;99.90;;;;;;6153321;23;20100;-75
2022/09/12 02:25:15;;;;;;;15.95;10.38;;;8.10;99.90;;;;;;6126147;23;20025;-75
2022/09/12 02:27:48;;;;;;;17.48;11.07;;;8.00;99.90;;;;;;6153720;23;20104;-75
2022/09/12 02:30:18;;;;;;;14.70;10.45;;;8.00;99.90;;;;;;6126687;23;20418;-75
2022/09/12 02:32:58;;;;;;;14.18;10.73;;;8.00;99.90;;;;;;6153276;23;20594;-77
2022/09/12 02:35:34;;;;;;;14.55;11.18;;;8.00;99.90;;;;;;6153714;23;20029;-76
2022/09/12 02:38:07;;;;;;;13.60;11.10;;;7.90;99.90;;;;;;6126756;23;20422;-76
2022/09/12 02:40:36;;;;;;;14.27;10.40;;;7.90;99.90;;;;;;6153218;23;20477;-77
2022/09/12 02:43:05;;;;;;;13.88;10.60;;;7.90;99.90;;;;;;6152951;23;20026;-76
2022/09/12 02:45:34;;;;;;;13.18;9.68;;;7.90;99.90;;;;;;6126903;23;20112;-77
2022/09/12 02:48:09;;;;;;;13.75;10.40;;;7.90;99.90;;;;;;6126741;23;20025;-77
2022/09/12 02:50:37;;;;;;;12.30;10.10;;;7.80;99.90;;;;;;6153266;23;20037;-73
2022/09/12 02:53:05;;;;;;;12.43;9.95;;;7.80;99.90;;;;;;6152203;23;20022;-73
2022/09/12 02:55:35;;;;;;;13.73;9.95;;;7.80;99.90;;;;;;6152753;23;20109;-72
2022/09/12 02:58:05;;;;;;;13.60;9.05;;;7.80;99.90;;;;;;6152934;23;20459;-72
2022/09/12 03:00:45;;;;;;;11.23;9.23;;;7.70;99.90;;;;;;6152373;23;20108;-72
2022/09/12 03:03:36;;;;;;;13.95;9.02;;;7.70;99.90;;;;;;6152842;23;20084;-73
2022/09/12 03:06:13;;;;;;;10.25;8.52;;;7.70;99.90;;;;;;6151312;23;20048;-73
2022/09/12 03:09:00;;;;;;;14.18;8.45;;;7.70;99.90;;;;;;6152641;23;20025;-73
2022/09/12 03:11:57;;;;;;;11.48;8.65;;;7.70;99.90;;;;;;6152654;23;20032;-73
2022/09/12 03:14:47;;;;;;;11.95;8.48;;;7.70;99.90;;;;;;6126303;23;20025;-73
2022/09/12 03:17:25;;;;;;;10.23;8.65;;;7.60;99.90;;;;;;6152751;23;20317;-72
2022/09/12 03:20:02;;;;;;;10.85;7.55;;;7.60;99.90;;;;;;6151849;23;20028;-72
2022/09/12 03:22:34;;;;;;;14.35;8.57;;;7.60;99.90;;;;;;6125578;23;20610;-73
2022/09/12 03:25:12;;;;;;;9.27;7.40;;;7.60;99.90;;;;;;6152913;23;20064;-72
2022/09/12 03:27:47;;;;;;;12.15;7.60;;;7.60;99.90;;;;;;6152616;23;20534;-72
2022/09/12 03:30:15;;;;;;;11.45;7.63;;;7.60;99.90;;;;;;6152085;23;20021;-73
2022/09/12 03:32:47;;;;;;;15.05;8.07;;;7.60;99.90;;;;;;6153365;23;20399;-73
2022/09/12 03:35:19;;;;;;;13.00;7.57;;;7.60;99.90;;;;;;6126821;23;20053;-72
2022/09/12 03:37:48;;;;;;;15.18;8.75;;;7.60;99.90;;;;;;6152731;23;20021;-72
2022/09/12 03:40:20;;;;;;;12.65;8.93;;;7.60;99.90;;;;;;6152924;23;20022;-72
2022/09/12 03:42:47;;;;;;;17.15;8.80;;;7.60;99.90;;;;;;6152980;23;20025;-72
2022/09/12 03:45:19;;;;;;;14.65;9.05;;;7.60;99.90;;;;;;6152447;23;20021;-73
2022/09/12 03:47:47;;;;;;;15.77;8.57;;;7.50;99.90;;;;;;6152912;23;20100;-72
2022/09/12 03:50:19;;;;;;;12.40;9.15;;;7.50;99.90;;;;;;6126962;23;20261;-72
2022/09/12 03:52:50;;;;;;;16.05;8.98;;;7.50;99.90;;;;;;6126783;23;20060;-73
2022/09/12 03:55:19;;;;;;;20.98;10.65;;;7.50;99.90;;;;;;6151667;23;20430;-72
2022/09/12 03:57:53;;;;;;;19.70;10.98;;;7.50;99.90;;;;;;6126205;23;20032;-73
2022/09/12 04:00:21;;;;;;;19.45;11.25;;;7.50;99.90;;;;;;6151763;23;20029;-73
2022/09/12 04:02:48;;;;;;;16.88;10.30;;;7.60;99.90;;;;;;6153426;23;20504;-73
2022/09/12 04:05:17;;;;;;;20.40;11.43;;;7.50;99.90;;;;;;6127714;23;20032;-73
2022/09/12 04:07:44;;;;;;;22.85;11.07;;;7.60;99.90;;;;;;6153288;23;20356;-73
2022/09/12 04:10:11;;;;;;;23.92;11.70;;;7.60;99.90;;;;;;6102897;23;20030;-73
2022/09/12 04:12:38;;;;;;;17.08;10.60;;;7.60;99.90;;;;;;6152593;23;20025;-71
2022/09/12 04:15:07;;;;;;;18.17;10.30;;;7.60;99.90;;;;;;6154205;23;20022;-73
2022/09/12 04:17:35;;;;;;;27.30;11.70;;;7.60;99.90;;;;;;6154457;23;20446;-73
2022/09/12 04:20:03;;;;;;;21.98;11.10;;;7.70;99.90;;;;;;6128226;23;20025;-71
2022/09/12 04:22:32;;;;;;;17.67;10.80;;;7.70;99.90;;;;;;6154345;23;20037;-72
2022/09/12 04:24:59;;;;;;;22.42;9.88;;;7.70;99.90;;;;;;6128393;23;20028;-71
2022/09/12 04:27:26;;;;;;;21.42;11.48;;;7.80;99.90;;;;;;6154035;23;20345;-72
2022/09/12 04:29:54;;;;;;;17.95;10.05;;;7.80;99.90;;;;;;6127837;23;20367;-71
2022/09/12 04:32:22;;;;;;;20.63;10.88;;;7.90;99.90;;;;;;6154483;23;20068;-72
2022/09/12 04:34:51;;;;;;;16.48;10.10;;;7.90;99.90;;;;;;6127419;23;20024;-72
2022/09/12 04:37:19;;;;;;;19.40;10.57;;;7.90;99.90;;;;;;6154672;23;20439;-72
2022/09/12 04:39:54;;;;;;;16.67;8.88;;;7.90;99.90;;;;;;6151943;23;20022;-72
2022/09/12 04:42:24;;;;;;;14.90;9.60;;;8.00;99.90;;;;;;6128821;23;20517;-73
2022/09/12 04:44:54;;;;;;;20.30;10.43;;;8.00;99.90;;;;;;6154676;23;20025;-73
2022/09/12 04:47:22;;;;;;;20.35;10.52;;;8.00;99.90;;;;;;6154705;23;20025;-73
2022/09/12 04:49:49;;;;;;;20.50;10.07;;;8.10;99.90;;;;;;6154525;23;20025;-70
2022/09/12 04:52:17;;;;;;;19.92;10.60;;;8.10;99.90;;;;;;6128288;23;20116;-72
2022/09/12 04:54:47;;;;;;;15.93;8.77;;;8.10;99.90;;;;;;6154190;23;20026;-70
2022/09/12 04:57:16;;;;;;;21.13;9.95;;;8.20;99.90;;;;;;6154706;23;20033;-71
2022/09/12 04:59:43;;;;;;;21.38;10.57;;;8.20;99.90;;;;;;6153594;23;20025;-72
2022/09/12 05:02:11;;;;;;;18.88;10.80;;;8.20;99.90;;;;;;6153895;23;20022;-73
2022/09/12 05:04:38;;;;;;;18.58;10.82;;;8.30;99.90;;;;;;6128285;23;20108;-72
2022/09/12 05:07:07;;;;;;;36.47;15.05;;;8.30;99.90;;;;;;6152976;23;20464;-73
2022/09/12 05:09:34;;;;;;;23.83;11.32;;;8.30;99.90;;;;;;6100389;23;20076;-70
2022/09/12 05:12:03;;;;;;;17.27;9.98;;;8.40;99.90;;;;;;6126374;23;20029;-72
2022/09/12 05:14:32;;;;;;;15.38;10.30;;;8.40;99.90;;;;;;6152101;23;20021;-72
2022/09/12 05:17:00;;;;;;;19.35;9.98;;;8.50;99.90;;;;;;6152235;23;20025;-72
2022/09/12 05:19:28;;;;;;;26.17;11.27;;;8.50;99.90;;;;;;6148371;23;20521;-73
2022/09/12 05:21:56;;;;;;;23.08;10.68;;;8.60;99.90;;;;;;6098084;23;20474;-72
2022/09/12 05:24:24;;;;;;;21.45;10.27;;;8.60;99.90;;;;;;6151007;23;20025;-73
2022/09/12 05:26:51;;;;;;;19.60;9.40;;;8.70;99.90;;;;;;6149968;23;20025;-72
2022/09/12 05:29:18;;;;;;;14.30;8.75;;;8.70;99.90;;;;;;6151125;23;20093;-72
2022/09/12 05:31:51;;;;;;;31.38;11.50;;;8.80;99.90;;;;;;6151049;23;20340;-72
2022/09/12 05:34:18;;;;;;;29.40;10.77;;;8.90;99.90;;;;;;6123706;23;20023;-73
2022/09/12 05:36:45;;;;;;;11.05;7.28;;;9.00;99.90;;;;;;6152419;23;20026;-72
2022/09/12 05:39:13;;;;;;;11.00;7.82;;;9.10;99.90;;;;;;6126923;23;20025;-72
2022/09/12 05:41:41;;;;;;;12.45;7.80;;;9.20;99.90;;;;;;6153975;23;20102;-72
2022/09/12 05:44:13;;;;;;;11.88;7.00;;;9.30;99.90;;;;;;6152957;23;20029;-73
2022/09/12 05:46:44;;;;;;;11.07;7.18;;;9.40;99.90;;;;;;6153565;23;20025;-73
2022/09/12 05:49:14;;;;;;;11.88;6.32;;;9.50;99.90;;;;;;6153435;23;20025;-73
2022/09/12 05:51:44;;;;;;;15.48;7.38;;;9.60;99.90;;;;;;6154872;23;20021;-77
2022/09/12 05:54:14;;;;;;;11.32;6.00;;;9.70;99.90;;;;;;6127536;23;20033;-77
2022/09/12 05:56:57;;;;;;;15.27;7.15;;;9.80;99.90;;;;;;6155345;23;20109;-72
2022/09/12 05:59:27;;;;;;;13.43;7.00;;;9.90;99.90;;;;;;6106321;23;20048;-77
2022/09/12 06:01:56;;;;;;;10.80;6.35;;;10.10;99.90;;;;;;6128801;23;20021;-71
2022/09/12 06:04:26;;;;;;;14.38;5.93;;;10.50;99.90;;;;;;6153835;23;20029;-72
2022/09/12 06:07:03;;;;;;;9.20;5.55;;;11.10;99.90;;;;;;6154041;23;20594;-72
2022/09/12 06:09:31;;;;;;;8.20;5.03;;;12.20;99.90;;;;;;6153783;23;20494;-77
2022/09/12 06:11:59;;;;;;;8.10;5.35;;;13.40;99.90;;;;;;6154396;23;20017;-77
2022/09/12 06:14:27;;;;;;;6.63;4.70;;;14.40;99.90;;;;;;6153173;23;20028;-77
2022/09/12 06:16:55;;;;;;;12.00;5.10;;;15.50;99.90;;;;;;6125025;23;20030;-77
2022/09/12 06:19:26;;;;;;;16.75;5.93;;;16.20;99.90;;;;;;6102936;23;20028;-76
2022/09/12 06:21:54;;;;;;;13.35;5.90;;;16.50;99.90;;;;;;6153995;23;20025;-79
2022/09/12 06:24:22;;;;;;;10.38;5.82;;;16.80;99.90;;;;;;6153568;23;20051;-77
2022/09/12 06:26:51;;;;;;;7.72;6.00;;;17.10;99.90;;;;;;6153948;23;20067;-78
2022/09/12 06:29:19;;;;;;;5.82;4.60;;;17.30;99.90;;;;;;6153248;23;20030;-77
2022/09/12 06:31:46;;;;;;;10.35;5.05;;;17.80;99.90;;;;;;6127519;23;20153;-76
2022/09/12 06:34:15;;;;;;;8.15;4.90;;;18.40;99.90;;;;;;6151789;23;20028;-77
2022/09/12 06:36:47;;;;;;;6.75;4.68;;;18.90;99.90;;;;;;6099206;23;20030;-77
2022/09/12 06:39:17;;;;;;;9.45;5.10;;;19.40;99.90;;;;;;6148651;23;20029;-77
2022/09/12 06:41:45;;;;;;;8.13;4.53;;;20.00;99.90;;;;;;6150735;23;20145;-78
2022/09/12 06:44:15;;;;;;;9.68;3.88;;;20.60;97.40;;;;;;6150204;23;20680;-78
2022/09/12 06:46:43;;;;;;;5.75;3.72;;;21.00;94.90;;;;;;6151123;23;20063;-75
2022/09/12 06:49:10;;;;;;;9.88;3.75;;;21.40;93.00;;;;;;6124585;23;20029;-77
2022/09/12 06:51:37;;;;;;;15.40;3.50;;;21.80;90.10;;;;;;6124301;23;20028;-77
2022/09/12 06:54:06;;;;;;;7.72;3.15;;;21.90;84.70;;;;;;6151634;23;20079;-76
2022/09/12 06:56:34;;;;;;;4.78;2.63;;;22.00;84.30;;;;;;6150907;23;20084;-78
2022/09/12 06:59:02;;;;;;;9.20;3.17;;;22.20;82.40;;;;;;6150659;23;20104;-77
2022/09/12 07:01:31;;;;;;;9.20;3.00;;;22.20;81.90;;;;;;6150867;23;20026;-76
2022/09/12 07:04:01;;;;;;;4.50;2.65;;;22.40;80.30;;;;;;6150911;23;20044;-77
2022/09/12 07:06:31;;;;;;;6.13;2.50;;;22.70;78.60;;;;;;6151700;23;20025;-77
2022/09/12 07:09:00;;;;;;;4.18;2.03;;;23.20;75.00;;;;;;6150754;23;20029;-76
2022/09/12 07:11:32;;;;;;;9.20;2.40;;;23.60;72.70;;;;;;6151890;23;20045;-77
2022/09/12 07:14:02;;;;;;;8.68;2.38;;;23.90;71.20;;;;;;6151183;23;20104;-77
2022/09/12 07:16:30;;;;;;;6.47;2.33;;;23.90;70.30;;;;;;6150622;23;20080;-77
2022/09/12 07:19:00;;;;;;;4.70;2.20;;;23.70;70.20;;;;;;6150615;23;20032;-79
2022/09/12 07:21:29;;;;;;;2.63;2.38;;;24.00;71.20;;;;;;6150516;23;20021;-77
2022/09/12 07:23:57;;;;;;;8.18;2.70;;;;;;;;;;6150386;23;20097;-80
2022/09/12 07:26:28;;;;;;;7.90;2.50;;;24.20;68.70;;;;;;6152680;23;21033;-80
2022/09/12 07:28:58;;;;;;;4.88;2.30;;;24.50;65.50;;;;;;6151716;23;20044;-78
2022/09/12 07:31:28;;;;;;;6.18;2.03;;;24.20;65.00;;;;;;6125051;23;20021;-77
2022/09/12 07:33:58;;;;;;;3.10;2.20;;;24.50;64.50;;;;;;6151373;23;20379;-78
2022/09/12 07:36:26;;;;;;;6.30;2.50;;;24.70;63.10;;;;;;6126955;23;20037;-73
2022/09/12 07:38:57;;;;;;;4.63;2.15;;;24.80;64.00;;;;;;6127291;23;20052;-73
2022/09/12 07:41:28;;;;;;;7.25;2.35;;;25.10;64.20;;;;;;6152311;23;20028;-73
2022/09/12 07:43:58;;;;;;;5.07;2.33;;;25.50;61.20;;;;;;6127128;23;20022;-72
2022/09/12 07:46:28;;;;;;;4.15;2.20;;;25.80;60.50;;;;;;6153019;23;20041;-71
2022/09/12 07:48:57;;;;;;;3.38;2.10;;;26.10;61.60;;;;;;6152886;23;20025;-72
2022/09/12 07:51:26;;;;;;;9.02;2.25;;;25.90;59.50;;;;;;6152073;23;20430;-71
2022/09/12 07:53:55;;;;;;;4.75;1.95;;;25.30;58.20;;;;;;6153304;23;20026;-72
2022/09/12 07:56:23;;;;;;;3.90;2.00;;;24.30;61.10;;;;;;6127599;23;20064;-72
2022/09/12 07:58:51;;;;;;;4.93;2.00;;;23.50;61.70;;;;;;6152974;23;20029;-72
2022/09/12 08:01:22;;;;;;;3.55;2.10;;;23.00;63.10;;;;;;6154204;23;20025;-78
2022/09/12 08:03:54;;;;;;;3.65;2.35;;;22.20;65.50;;;;;;6154296;23;20025;-81
2022/09/12 08:06:24;;;;;;;5.90;2.10;;;21.70;67.30;;;;;;6127505;23;20064;-77
2022/09/12 08:08:52;;;;;;;5.70;2.20;;;22.20;68.00;;;;;;6153157;23;20529;-76
2022/09/12 08:11:21;;;;;;;3.67;2.03;;;23.20;64.60;;;;;;6153143;23;20022;-78
2022/09/12 08:13:51;;;;;;;3.08;2.20;;;23.70;63.20;;;;;;6127172;23;20026;-78
2022/09/12 08:16:21;;;;;;;2.30;1.88;;;24.70;60.70;;;;;;6153954;23;20028;-78
2022/09/12 08:18:49;;;;;;;1.92;1.80;;;25.50;60.40;;;;;;6127597;23;20024;-78
2022/09/12 08:21:19;;;;;;;4.35;1.95;;;26.20;58.50;;;;;;6125917;23;20025;-76
2022/09/12 08:23:48;;;;;;;3.03;2.05;;;26.90;56.40;;;;;;6153753;23;20018;-81
2022/09/12 08:26:18;;;;;;;3.40;1.98;;;27.30;54.80;;;;;;6153051;23;20117;-80
2022/09/12 08:28:46;;;;;;;5.25;1.90;;;27.20;54.60;;;;;;6153077;23;20084;-80
2022/09/12 08:31:18;;;;;;;2.35;1.80;;;27.30;55.20;;;;;;6153446;23;20027;-78
2022/09/12 08:33:46;;;;;;;2.57;1.77;;;27.20;56.30;;;;;;6153686;23;20087;-79
2022/09/12 08:36:16;;;;;;;4.40;1.88;;;27.20;55.00;;;;;;6153787;23;20080;-78
2022/09/12 08:38:46;;;;;;;7.20;2.10;;;27.70;53.20;;;;;;6127023;23;20021;-77
2022/09/12 08:41:26;;;;;;;5.95;2.10;;;27.90;52.90;;;;;;6153936;23;20057;-77
2022/09/12 08:44:23;;;;;;;3.45;1.92;;;27.70;53.40;;;;;;6153509;23;20407;-77
2022/09/12 08:47:15;;;;;;;6.03;2.08;;;27.80;54.50;;;;;;6103346;23;20025;-77
2022/09/12 08:49:55;;;;;;;2.28;1.92;;;28.40;53.00;;;;;;6152865;23;20088;-78
2022/09/12 08:52:29;;;;;;;9.52;2.28;;;28.70;53.40;;;;;;6153420;23;20032;-77
2022/09/12 08:54:57;;;;;;;4.07;2.10;;;29.50;51.20;;;;;;6127175;23;20021;-78
2022/09/12 08:57:24;;;;;;;4.63;2.10;;;29.80;50.30;;;;;;6126191;23;20336;-81
2022/09/12 08:59:55;;;;;;;3.30;1.50;;;29.50;50.80;;;;;;6147524;23;20026;-78
2022/09/12 09:03:05;;;;;;;5.57;1.85;;;29.00;49.40;;;;;;6151528;23;20065;-77
2022/09/12 09:05:46;;;;;;;4.60;2.30;;;29.10;50.20;;;;;;6151768;23;20526;-79
2022/09/12 09:08:35;;;;;;;3.13;1.70;;;28.60;50.50;;;;;;6151649;23;20031;-73
2022/09/12 09:11:21;;;;;;;9.38;1.95;;;28.60;50.30;;;;;;6152561;23;20068;-74
2022/09/12 09:16:53;;;;;;;4.38;2.22;;;29.30;49.90;;;;;;6152591;23;20021;-74
2022/09/12 09:19:31;;;;;;;6.07;1.90;;;29.20;49.60;;;;;;6152549;23;20363;-73
2022/09/12 09:22:03;;;;;;;2.10;1.63;;;29.50;49.60;;;;;;6152202;23;20044;-72
2022/09/12 09:24:40;;;;;;;4.22;1.77;;;29.90;48.50;;;;;;6152010;23;20100;-73
2022/09/12 09:27:15;;;;;;;2.85;1.83;;;30.10;48.10;;;;;;6126497;23;20068;-73
2022/09/12 09:29:47;;;;;;;3.97;2.08;;;30.00;47.70;;;;;;6152215;23;20112;-71
2022/09/12 09:32:19;;;;;;;2.47;2.00;;;29.40;48.20;;;;;;6153394;23;20037;-72
2022/09/12 09:34:48;;;;;;;;;;;28.80;48.70;;;;;;6153640;23;20068;-72
2022/09/12 09:37:21;;;;;;;5.25;2.35;;;28.10;49.40;;;;;;6152760;23;19927;-72
2022/09/12 09:40:02;;;;;;;3.78;1.95;;;27.50;49.80;;;;;;6125754;23;20044;-72
2022/09/12 09:42:41;;;;;;;4.73;2.20;;;26.40;50.60;;;;;;6126785;23;20506;-72
2022/09/12 09:45:16;;;;;;;2.90;2.00;;;25.10;52.60;;;;;;6126222;23;20028;-75
2022/09/12 09:47:46;;;;;;;7.13;2.22;;;24.10;54.60;;;;;;6151910;23;20909;-73
2022/09/12 09:50:17;;;;;;;9.27;2.80;;;23.30;56.10;;;;;;6152680;23;20096;-72
2022/09/12 09:52:44;;;;;;;4.07;2.00;;;22.60;57.30;;;;;;6126514;23;20033;-72
2022/09/12 09:55:17;;;;;;;5.57;2.38;;;22.20;58.40;;;;;;6152123;23;20104;-73
2022/09/12 09:57:46;;;;;;;2.42;2.10;;;21.80;59.40;;;;;;6152029;23;20584;-74
2022/09/12 10:00:33;;;;;;;2.95;1.85;;;21.80;60.10;;;;;;6151668;23;20026;-72
2022/09/12 10:03:27;;;;;;;2.90;2.10;;;23.10;57.60;;;;;;6125970;23;20017;-72
2022/09/12 10:06:00;;;;;;;4.45;2.03;;;24.60;56.30;;;;;;6152247;23;20025;-72
2022/09/12 10:08:30;;;;;;;10.02;2.08;;;26.30;53.50;;;;;;6152669;23;20355;-72
2022/09/12 10:11:02;;;;;;;3.72;1.88;;;27.20;51.40;;;;;;6152135;23;20052;-71
2022/09/12 10:13:38;;;;;;;1.87;1.77;;;26.80;51.60;;;;;;6151783;23;20076;-72
2022/09/12 10:16:18;;;;;;;2.35;1.70;;;26.90;52.40;;;;;;6149128;23;20761;-72
2022/09/12 10:18:46;;;;;;;4.57;1.98;;;27.60;51.30;;;;;;6149199;23;20035;-72
2022/09/12 10:21:21;;;;;;;3.70;1.52;;;28.10;50.60;;;;;;6149485;23;20029;-72
2022/09/12 10:23:59;;;;;;;1.50;1.40;;;28.80;49.80;;;;;;6149114;23;20021;-72
2022/09/12 10:26:33;;;;;;;3.25;1.33;;;29.30;48.60;;;;;;6149927;23;20060;-72
2022/09/12 10:29:11;;;;;;;2.97;1.50;;;29.40;48.70;;;;;;6148352;23;20030;-72
2022/09/12 10:31:47;;;;;;;3.22;1.48;;;29.50;47.90;;;;;;6152674;23;20053;-72
2022/09/12 10:34:29;;;;;;;1.50;1.38;;;29.30;49.50;;;;;;6151918;23;20021;-73
2022/09/12 10:37:05;;;;;;;2.50;2.28;;;28.90;48.60;;;;;;6126884;23;20030;-74
2022/09/12 10:39:34;;;;;;;1.92;1.80;;;28.50;49.30;;;;;;6125259;23;20026;-73
2022/09/12 10:42:04;;;;;;;2.30;1.80;;;28.50;49.40;;;;;;6100178;23;20124;-72
2022/09/12 10:44:33;;;;;;;2.53;1.98;;;28.30;50.40;;;;;;6151557;23;20469;-72
2022/09/12 10:47:20;;;;;;;1.92;1.80;;;28.00;49.60;;;;;;6152109;23;20025;-72
2022/09/12 10:49:49;;;;;;;2.95;1.88;;;27.70;50.40;;;;;;6125930;23;20113;-72
2022/09/12 10:52:23;;;;;;;3.00;1.83;;;27.60;50.10;;;;;;6150597;23;20083;-71
2022/09/12 10:54:50;;;;;;;3.70;1.83;;;26.70;50.30;;;;;;6151612;23;20025;-70
2022/09/12 10:57:36;;;;;;;3.42;1.50;;;26.00;51.60;;;;;;6150795;23;20108;-71
2022/09/12 11:00:14;;;;;;;3.53;1.70;;;25.70;52.20;;;;;;6150557;23;20022;-71
2022/09/12 11:02:52;;;;;;;3.33;1.80;;;25.10;53.10;;;;;;6152276;23;20153;-76
2022/09/12 11:05:39;;;;;;;3.05;1.90;;;24.00;55.30;;;;;;6152061;23;20106;-78
2022/09/12 11:08:26;;;;;;;5.28;2.08;;;23.20;57.20;;;;;;6149996;23;20061;-76
2022/09/12 11:11:01;;;;;;;2.38;1.67;;;23.20;60.90;;;;;;6150873;23;20489;-70
2022/09/12 11:13:54;;;;;;;3.63;1.63;;;24.20;57.60;;;;;;6151691;23;20116;-77
2022/09/12 11:16:31;;;;;;;5.03;1.80;;;24.90;56.80;;;;;;6150158;23;20025;-78
2022/09/12 11:19:37;;;;;;;3.40;1.77;;;25.30;56.20;;;;;;6151047;23;20022;-77
2022/09/12 11:22:20;;;;;;;2.08;1.77;;;25.30;54.40;;;;;;6100606;23;20045;-80
2022/09/12 11:25:24;;;;;;;4.88;1.60;;;25.00;55.30;;;;;;6149187;23;20021;-79
2022/09/12 11:28:13;;;;;;;2.70;1.52;;;26.30;53.60;;;;;;6151965;23;20029;-78
2022/09/12 11:31:03;;;;;;;3.30;1.70;;;27.70;51.40;;;;;;6151160;23;20022;-77
2022/09/12 11:33:42;;;;;;;6.97;2.13;;;29.00;49.80;;;;;;6152185;23;20025;-78
2022/09/12 11:36:23;;;;;;;3.88;1.80;;;30.20;48.80;;;;;;6125645;23;20018;-72
2022/09/12 11:39:03;;;;;;;2.53;1.70;;;31.50;46.00;;;;;;6151447;23;20029;-72
2022/09/12 11:41:38;;;;;;;2.35;1.67;;;32.10;45.90;;;;;;6151252;23;20028;-72
2022/09/12 11:44:16;;;;;;;2.92;1.65;;;31.80;46.40;;;;;;6125284;23;20029;-73
2022/09/12 11:46:44;;;;;;;4.03;2.17;;;31.10;46.40;;;;;;6151186;23;20031;-73
2022/09/12 11:49:21;;;;;;;3.20;2.25;;;30.90;45.90;;;;;;6151440;23;20036;-72
2022/09/12 11:51:54;;;;;;;3.03;2.30;;;30.90;46.00;;;;;;6151717;23;20018;-72
2022/09/12 11:54:27;;;;;;;2.28;2.03;;;30.30;46.00;;;;;;6151151;23;20101;-72
2022/09/12 11:57:06;;;;;;;2.30;2.10;;;29.70;47.10;;;;;;6151675;23;20068;-73
2022/09/12 11:59:43;;;;;;;6.72;1.98;;;29.70;47.30;;;;;;6149038;23;20029;-73
2022/09/12 12:02:26;;;;;;;2.60;1.90;;;30.40;46.00;;;;;;6150331;23;20025;-72
2022/09/12 12:05:16;;;;;;;2.75;1.60;;;31.40;44.50;;;;;;6151375;23;20116;-73
2022/09/12 12:07:52;;;;;;;2.20;1.65;;;31.40;44.40;;;;;;6101119;23;20030;-72
2022/09/12 12:10:28;;;;;;;1.73;1.52;;;30.10;44.70;;;;;;6099919;23;20021;-72
2022/09/12 12:12:59;;;;;;;3.53;1.50;;;28.30;46.30;;;;;;6151608;23;20028;-73
2022/09/12 12:15:27;;;;;;;5.63;2.03;;;26.30;49.40;;;;;;6150138;23;20025;-73
2022/09/12 12:18:08;;;;;;;6.40;1.60;;;24.70;52.60;;;;;;6151355;23;20017;-73
2022/09/12 12:20:38;;;;;;;3.90;1.67;;;23.50;54.60;;;;;;6126235;23;20045;-73
2022/09/12 12:23:06;;;;;;;2.92;1.50;;;23.00;56.10;;;;;;6153605;23;20108;-73
2022/09/12 12:25:51;;;;;;;3.97;1.58;;;22.80;57.30;;;;;;6152593;23;20025;-73
2022/09/12 12:29:00;;;;;;;8.95;1.80;;;22.70;56.20;;;;;;6153000;23;20108;-73
2022/09/12 12:31:34;;;;;;;2.42;1.42;;;22.10;57.20;;;;;;6126180;23;20032;-75
2022/09/12 12:34:28;;;;;;;3.22;1.92;;;21.50;58.70;;;;;;6153067;23;20489;-73
2022/09/12 12:36:56;;;;;;;6.00;2.07;;;21.00;59.90;;;;;;6153006;23;20045;-73
2022/09/12 12:40:04;;;;;;;4.05;1.52;;;20.60;60.70;;;;;;6152099;23;20288;-73
2022/09/12 12:43:30;;;;;;;2.60;1.80;;;20.30;62.00;;;;;;6153271;23;20021;-72
2022/09/12 12:46:13;;;;;;;1.85;1.73;;;19.90;63.70;;;;;;6152297;23;20092;-73
2022/09/12 12:48:53;;;;;;;3.83;1.45;;;19.70;64.70;;;;;;6152714;23;20467;-76
2022/09/12 12:51:55;;;;;;;2.22;1.55;;;19.70;64.30;;;;;;6152774;23;20025;-73
2022/09/12 12:54:54;;;;;;;4.95;1.80;;;19.80;63.60;;;;;;6152743;23;20084;-75
2022/09/12 12:57:48;;;;;;;2.67;1.40;;;19.80;64.00;;;;;;6153086;23;20018;-74
2022/09/12 13:00:33;;;;;;;3.33;1.65;;;19.80;64.10;;;;;;6152670;23;20022;-74
2022/09/12 13:03:18;;;;;;;2.85;1.70;;;19.90;64.70;;;;;;6152655;23;20083;-74
2022/09/12 13:05:50;;;;;;;3.28;1.95;;;20.00;64.60;;;;;;6152389;23;20116;-73
2022/09/12 13:08:30;;;;;;;2.97;1.80;;;20.00;64.90;;;;;;6151831;23;20467;-74
2022/09/12 13:11:01;;;;;;;2.78;1.80;;;20.10;64.60;;;;;;6151915;23;20112;-74
2022/09/12 13:13:35;;;;;;;3.55;1.77;;;20.40;64.20;;;;;;6152733;23;20075;-74
2022/09/12 13:16:03;;;;;;;4.00;1.60;;;21.40;63.40;;;;;;6153540;23;20025;-73
2022/09/12 13:18:44;;;;;;;3.80;1.60;;;24.10;58.70;;;;;;6124047;23;20407;-74
2022/09/12 13:21:15;;;;;;;2.70;2.17;;;25.00;55.20;;;;;;6150572;23;20463;-74
2022/09/12 13:23:44;;;;;;;2.72;1.50;;;24.30;55.70;;;;;;6151258;23;20025;-74
2022/09/12 13:26:22;;;;;;;;;;;23.60;56.80;;;;;;6151353;23;20437;-72